Time;durP1;ratioP1;P1;durP2;ratioP2;P2;SDS_P1;SDS_P2;PMS_P1;PMS_P2;Temp;Humidity;BMP_temperature;BMP_pressure;BME280_temperature;BME280_humidity;BME280_pressure;Samples;Min_cycle;Max_cycle;Signal;HPM_P1;HPM_P2
2024/02/21 00:00:44;;;;;;;29.57;11.97;;;8.00;1.00;;;;;;5056637;28;20470;-69
2024/02/21 00:03:12;;;;;;;24.47;12.50;;;8.10;1.00;;;;;;5055425;28;20552;-69
2024/02/21 00:05:39;;;;;;;20.53;12.43;;;8.10;1.00;;;;;;5055062;28;20454;-69
2024/02/21 00:08:07;;;;;;;19.50;12.50;;;8.10;1.00;;;;;;5055316;28;20458;-69
2024/02/21 00:10:36;;;;;;;20.33;12.30;;;8.10;1.00;;;;;;5055668;28;20733;-68
2024/02/21 00:13:03;;;;;;;21.83;12.27;;;8.00;1.00;;;;;;5055667;28;20866;-68
2024/02/21 00:15:30;;;;;;;20.27;12.20;;;8.10;1.00;;;;;;5054851;28;20528;-69
2024/02/21 00:17:58;;;;;;;17.47;10.90;;;8.10;1.00;;;;;;5054835;28;20494;-69
2024/02/21 00:20:26;;;;;;;22.97;13.20;;;8.00;1.00;;;;;;5055408;28;20802;-69
2024/02/21 00:22:54;;;;;;;22.60;13.07;;;8.10;1.00;;;;;;5037165;28;20760;-69
2024/02/21 00:25:22;;;;;;;32.10;12.87;;;8.10;1.00;;;;;;5054866;28;20458;-69
2024/02/21 00:27:51;;;;;;;26.20;13.07;;;8.10;1.00;;;;;;5055220;28;20454;-69
2024/02/21 00:30:18;;;;;;;22.57;13.27;;;8.10;1.00;;;;;;5053383;28;20553;-69
2024/02/21 00:32:46;;;;;;;21.50;11.67;;;8.10;1.00;;;;;;5054915;28;20476;-69
2024/02/21 00:35:13;;;;;;;24.63;12.67;;;8.10;1.00;;;;;;5055351;28;20875;-69
2024/02/21 00:37:40;;;;;;;22.50;12.67;;;8.10;1.00;;;;;;5055003;28;20768;-69
2024/02/21 00:40:09;;;;;;;20.83;12.87;;;8.10;1.00;;;;;;5054959;28;20463;-69
2024/02/21 00:42:36;;;;;;;24.30;13.63;;;8.10;1.00;;;;;;5054885;28;20790;-68
2024/02/21 00:45:06;;;;;;;19.70;11.67;;;8.10;1.00;;;;;;5055101;28;20498;-69
2024/02/21 00:47:33;;;;;;;21.77;12.03;;;8.10;1.00;;;;;;5054357;28;20467;-69
2024/02/21 00:50:01;;;;;;;20.47;11.70;;;8.10;1.00;;;;;;5054735;28;20466;-69
2024/02/21 00:52:28;;;;;;;23.80;12.57;;;8.10;1.00;;;;;;5054965;28;20951;-69
2024/02/21 00:54:56;;;;;;;23.93;12.40;;;8.10;1.00;;;;;;5054807;28;20542;-69
2024/02/21 00:57:23;;;;;;;20.90;11.90;;;8.10;1.00;;;;;;5054019;28;20481;-69
2024/02/21 00:59:50;;;;;;;26.97;12.07;;;8.20;1.00;;;;;;5054290;28;20463;-69
2024/02/21 01:02:19;;;;;;;22.03;12.80;;;8.10;1.00;;;;;;5054497;28;20902;-69
2024/02/21 01:04:47;;;;;;;25.10;12.93;;;8.20;1.00;;;;;;5054966;28;20507;-69
2024/02/21 01:07:14;;;;;;;23.07;13.10;;;8.20;1.00;;;;;;5054852;28;20462;-69
2024/02/21 01:09:41;;;;;;;20.67;13.50;;;8.20;1.00;;;;;;5054599;28;20891;-69
2024/02/21 01:12:09;;;;;;;20.70;12.40;;;8.20;1.00;;;;;;5054362;28;20458;-69
2024/02/21 01:14:36;;;;;;;21.97;13.97;;;8.20;1.00;;;;;;5054439;28;20827;-69
2024/02/21 01:17:06;;;;;;;29.97;12.50;;;8.20;1.00;;;;;;5053859;28;20501;-69
2024/02/21 01:19:34;;;;;;;18.00;12.30;;;8.20;1.00;;;;;;5054108;28;20494;-69
2024/02/21 01:22:02;;;;;;;16.53;12.67;;;8.20;1.00;;;;;;5054144;28;20459;-69
2024/02/21 01:24:29;;;;;;;24.10;13.33;;;8.20;1.00;;;;;;5054535;28;20459;-69
2024/02/21 01:26:56;;;;;;;23.03;12.90;;;8.20;1.00;;;;;;5054552;28;20518;-68
2024/02/21 01:29:23;;;;;;;24.77;12.50;;;8.30;1.00;;;;;;5053923;28;20453;-69
2024/02/21 01:31:51;;;;;;;20.87;12.57;;;8.20;1.00;;;;;;5054301;28;20481;-69
2024/02/21 01:34:18;;;;;;;21.27;13.00;;;8.20;1.00;;;;;;5054210;28;20737;-69
2024/02/21 01:36:47;;;;;;;21.50;12.10;;;8.30;1.00;;;;;;5053834;28;20960;-69
2024/02/21 01:39:14;;;;;;;22.23;12.10;;;8.20;1.00;;;;;;5054048;28;20576;-69
2024/02/21 01:41:41;;;;;;;24.37;13.03;;;8.20;1.00;;;;;;5059249;28;20883;-69
2024/02/21 01:44:09;;;;;;;25.33;13.47;;;8.30;1.00;;;;;;5061008;28;20469;-69
2024/02/21 01:46:36;;;;;;;23.47;11.93;;;8.30;1.00;;;;;;5060542;28;20511;-69
2024/02/21 01:49:04;;;;;;;21.47;12.50;;;8.30;1.00;;;;;;5060668;28;20484;-69
2024/02/21 01:51:32;;;;;;;21.40;12.70;;;8.30;1.00;;;;;;5060641;28;20462;-70
2024/02/21 01:54:01;;;;;;;21.30;11.83;;;8.30;1.00;;;;;;5060077;28;20501;-69
2024/02/21 01:56:29;;;;;;;21.00;12.57;;;8.20;1.00;;;;;;5060500;28;20458;-69
2024/02/21 01:58:57;;;;;;;23.37;12.57;;;8.20;1.00;;;;;;5060780;28;20526;-68
2024/02/21 02:01:24;;;;;;;27.57;14.60;;;8.30;1.00;;;;;;5060310;28;20537;-69
2024/02/21 02:03:52;;;;;;;22.23;11.60;;;8.20;1.00;;;;;;5060141;28;20557;-69
2024/02/21 02:06:20;;;;;;;20.77;11.67;;;8.20;1.00;;;;;;5060381;28;20462;-69
2024/02/21 02:08:47;;;;;;;29.97;13.40;;;8.30;1.00;;;;;;5060424;28;20458;-69
2024/02/21 02:11:17;;;;;;;28.73;13.87;;;8.30;1.00;;;;;;5060416;28;20569;-69
2024/02/21 02:13:43;;;;;;;21.23;12.17;;;8.20;1.00;;;;;;5060183;28;20788;-69
2024/02/21 02:16:10;;;;;;;21.60;11.67;;;8.20;1.00;;;;;;5060447;28;20466;-68
2024/02/21 02:18:37;;;;;;;24.47;12.60;;;8.30;1.00;;;;;;5060100;28;20494;-68
2024/02/21 02:21:08;;;;;;;21.00;12.23;;;8.20;1.00;;;;;;5060288;28;20467;-68
2024/02/21 02:23:36;;;;;;;19.37;12.33;;;8.20;1.00;;;;;;5059779;28;20505;-69
2024/02/21 02:26:05;;;;;;;22.47;14.57;;;8.30;1.00;;;;;;5060103;28;20784;-69
2024/02/21 02:28:32;;;;;;;21.90;12.10;;;8.20;1.00;;;;;;5060167;28;20798;-69
2024/02/21 02:30:59;;;;;;;17.27;12.17;;;8.20;1.00;;;;;;5060105;28;20565;-69
2024/02/21 02:33:26;;;;;;;21.87;13.13;;;8.20;1.00;;;;;;5059584;28;20504;-68
2024/02/21 02:35:58;;;;;;;20.17;12.90;;;8.20;1.00;;;;;;5059768;28;20560;-69
2024/02/21 02:38:25;;;;;;;19.80;11.70;;;8.20;1.00;;;;;;5059622;28;20881;-69
2024/02/21 02:40:54;;;;;;;23.53;12.70;;;8.20;1.00;;;;;;5060349;28;20454;-69
2024/02/21 02:43:21;;;;;;;22.33;11.53;;;8.20;1.00;;;;;;5059051;28;20462;-69
2024/02/21 02:45:48;;;;;;;27.67;13.20;;;8.20;1.00;;;;;;5059141;28;20494;-69
2024/02/21 02:48:16;;;;;;;20.47;12.03;;;8.10;1.00;;;;;;5059957;28;20498;-69
2024/02/21 02:50:43;;;;;;;21.27;12.10;;;8.20;1.00;;;;;;5059853;28;20473;-69
2024/02/21 02:53:10;;;;;;;19.17;11.63;;;8.20;1.00;;;;;;5056298;28;20576;-68
2024/02/21 02:55:37;;;;;;;21.10;12.10;;;8.20;1.00;;;;;;5056391;28;20802;-67
2024/02/21 02:58:06;;;;;;;27.77;12.20;;;8.20;1.00;;;;;;5056517;28;20759;-69
2024/02/21 03:00:36;;;;;;;23.53;12.03;;;8.20;1.00;;;;;;5056517;28;20482;-69
2024/02/21 03:03:04;;;;;;;20.90;11.57;;;8.20;1.00;;;;;;5056494;28;20933;-69
2024/02/21 03:05:31;;;;;;;24.80;11.93;;;8.20;1.00;;;;;;5055665;28;20458;-69
2024/02/21 03:07:59;;;;;;;21.40;11.17;;;8.20;1.00;;;;;;5055927;28;20463;-69
2024/02/21 03:10:26;;;;;;;23.63;11.20;;;8.20;1.00;;;;;;5056266;28;20462;-69
2024/02/21 03:12:53;;;;;;;15.67;10.60;;;8.20;1.00;;;;;;5056076;28;20487;-69
2024/02/21 03:15:22;;;;;;;20.63;12.03;;;8.20;1.00;;;;;;5056333;28;20465;-69
2024/02/21 03:17:49;;;;;;;19.30;10.83;;;8.30;1.00;;;;;;5055664;28;20458;-69
2024/02/21 03:20:17;;;;;;;16.33;10.40;;;8.20;1.00;;;;;;5056219;28;20531;-69
2024/02/21 03:22:44;;;;;;;20.70;11.80;;;8.20;1.00;;;;;;5056356;27;20851;-69
2024/02/21 03:25:12;;;;;;;25.77;12.10;;;8.20;1.00;;;;;;5055701;28;20454;-69
2024/02/21 03:27:39;;;;;;;14.90;10.73;;;8.20;1.00;;;;;;5056360;28;20462;-69
2024/02/21 03:30:08;;;;;;;23.07;11.13;;;8.10;1.00;;;;;;5055768;28;20556;-69
2024/02/21 03:32:38;;;;;;;24.20;11.37;;;8.10;1.00;;;;;;5055872;28;20466;-69
2024/02/21 03:35:06;;;;;;;20.90;10.27;;;8.10;1.00;;;;;;5056162;27;20887;-70
2024/02/21 03:37:33;;;;;;;26.70;12.23;;;8.00;1.00;;;;;;5055631;28;20560;-69
2024/02/21 03:40:01;;;;;;;19.67;11.93;;;8.10;1.00;;;;;;5056104;27;20546;-70
2024/02/21 03:42:31;;;;;;;18.00;11.70;;;8.10;1.00;;;;;;5055408;28;20553;-69
2024/02/21 03:44:58;;;;;;;27.17;11.20;;;8.10;1.00;;;;;;5056282;27;20774;-69
2024/02/21 03:47:25;;;;;;;20.80;11.30;;;8.10;1.00;;;;;;5055600;28;20462;-69
2024/02/21 03:49:54;;;;;;;20.70;11.57;;;8.10;1.00;;;;;;5055774;27;20496;-69
2024/02/21 03:52:21;;;;;;;18.27;11.90;;;8.10;1.00;;;;;;5055885;28;20549;-69
2024/02/21 03:54:48;;;;;;;21.57;10.67;;;8.00;1.00;;;;;;5055210;28;20956;-69
2024/02/21 03:57:17;;;;;;;18.10;10.13;;;8.00;1.00;;;;;;5055704;28;20458;-69
2024/02/21 03:59:44;;;;;;;23.33;10.70;;;8.00;1.00;;;;;;5055982;27;20490;-69
2024/02/21 04:02:11;;;;;;;23.67;11.70;;;8.00;1.00;;;;;;5055344;27;20462;-68
2024/02/21 04:04:39;;;;;;;21.50;11.47;;;8.00;1.00;;;;;;5055326;28;20464;-69
2024/02/21 04:07:08;;;;;;;14.87;10.00;;;8.10;1.00;;;;;;5056019;27;20724;-69
2024/02/21 04:09:35;;;;;;;16.50;10.70;;;8.10;1.00;;;;;;5055261;27;20454;-69
2024/02/21 04:12:03;;;;;;;20.13;10.70;;;8.10;1.00;;;;;;5055346;27;20459;-69
2024/02/21 04:14:30;;;;;;;23.07;10.53;;;8.10;1.00;;;;;;5055629;27;20470;-69
2024/02/21 04:16:57;;;;;;;24.33;10.90;;;8.10;1.00;;;;;;5055788;27;20462;-68
2024/02/21 04:19:24;;;;;;;20.17;10.60;;;8.10;99.90;;;;;;5054728;27;20585;-69
2024/02/21 04:21:52;;;;;;;16.43;10.87;;;8.10;99.90;;;;;;5055159;28;20828;-69
2024/02/21 04:24:20;;;;;;;19.90;10.80;;;8.10;99.90;;;;;;5054976;28;20504;-69
2024/02/21 04:26:47;;;;;;;15.50;10.07;;;8.10;99.90;;;;;;5055509;28;20501;-69
2024/02/21 04:29:14;;;;;;;19.63;10.07;;;8.10;99.90;;;;;;5055473;28;20481;-69
2024/02/21 04:31:42;;;;;;;14.77;8.83;;;8.10;99.90;;;;;;5055081;28;20459;-68
2024/02/21 04:34:09;;;;;;;17.17;10.73;;;8.10;99.90;;;;;;5055031;28;20494;-69
2024/02/21 04:36:36;;;;;;;15.60;9.23;;;8.10;99.90;;;;;;5055278;28;20490;-69
2024/02/21 04:39:03;;;;;;;15.83;9.63;;;8.10;99.90;;;;;;5055436;27;20582;-69
2024/02/21 04:41:32;;;;;;;15.00;10.03;;;8.20;99.90;;;;;;5054724;28;20899;-69
2024/02/21 04:43:59;;;;;;;18.07;8.83;;;8.10;99.90;;;;;;5054992;27;20599;-69
2024/02/21 04:46:27;;;;;;;15.33;10.13;;;8.10;99.90;;;;;;5054994;28;20556;-69
2024/02/21 04:48:54;;;;;;;14.40;8.50;;;8.10;99.90;;;;;;5054966;27;20455;-69
2024/02/21 04:51:21;;;;;;;13.37;8.47;;;8.10;99.90;;;;;;5054525;28;20465;-69
2024/02/21 04:53:48;;;;;;;17.00;9.07;;;8.10;99.90;;;;;;5054488;28;20486;-69
2024/02/21 04:56:16;;;;;;;13.67;9.00;;;8.10;99.90;;;;;;5054551;28;20494;-61
2024/02/21 04:58:44;;;;;;;23.43;9.97;;;8.10;99.90;;;;;;5054731;28;20545;-60
2024/02/21 05:01:12;;;;;;;15.50;9.53;;;8.20;99.90;;;;;;5055014;27;20915;-62
2024/02/21 05:03:40;;;;;;;17.70;8.83;;;8.10;99.90;;;;;;5054614;28;20895;-61
2024/02/21 05:06:07;;;;;;;13.20;8.90;;;8.10;99.90;;;;;;5055051;27;20462;-61
2024/02/21 05:08:34;;;;;;;13.37;8.90;;;8.10;99.90;;;;;;5054975;27;20458;-61
2024/02/21 05:11:02;;;;;;;20.00;10.90;;;8.10;99.90;;;;;;5055054;27;20455;-61
2024/02/21 05:13:30;;;;;;;12.23;8.07;;;8.10;99.90;;;;;;5054049;28;20462;-60
2024/02/21 05:16:01;;;;;;;13.87;8.00;;;8.20;99.90;;;;;;5053721;27;20817;-60
2024/02/21 05:18:28;;;;;;;15.70;8.33;;;8.10;99.90;;;;;;5054311;28;20469;-61
2024/02/21 05:20:55;;;;;;;17.67;9.43;;;8.10;99.90;;;;;;5054706;28;20494;-61
2024/02/21 05:23:23;;;;;;;15.67;8.63;;;8.10;99.90;;;;;;5054301;28;20815;-61
2024/02/21 05:25:50;;;;;;;11.40;7.87;;;8.10;99.90;;;;;;5054239;28;20801;-61
2024/02/21 05:28:17;;;;;;;15.20;8.60;;;8.10;99.90;;;;;;5054162;27;20470;-60
2024/02/21 05:30:44;;;;;;;12.00;7.60;;;8.10;99.90;;;;;;5054463;28;20545;-60
2024/02/21 05:33:20;;;;;;;20.53;9.63;;;8.10;99.90;;;;;;5054605;28;20549;-61
2024/02/21 05:35:48;;;;;;;12.33;7.57;;;8.10;99.90;;;;;;5052991;27;20465;-61
2024/02/21 05:38:15;;;;;;;13.67;8.30;;;8.10;99.90;;;;;;5053189;28;20455;-60
2024/02/21 05:40:43;;;;;;;13.13;8.17;;;8.10;99.90;;;;;;5054168;28;20497;-61
2024/02/21 05:43:10;;;;;;;22.83;8.97;;;8.10;99.90;;;;;;5054284;28;20462;-60
2024/02/21 05:45:38;;;;;;;13.90;8.63;;;8.10;99.90;;;;;;5052462;28;20879;-61
2024/02/21 05:48:06;;;;;;;16.40;9.20;;;8.10;99.90;;;;;;5053329;28;20511;-60
2024/02/21 05:50:34;;;;;;;15.43;8.23;;;8.10;98.50;;;;;;5054343;28;20454;-61
2024/02/21 05:53:03;;;;;;;11.80;8.63;;;8.10;99.50;;;;;;5054124;27;20492;-69
2024/02/21 05:55:30;;;;;;;12.30;8.83;;;8.10;99.00;;;;;;5053345;28;20462;-69
2024/02/21 05:57:57;;;;;;;13.47;7.87;;;8.10;94.10;;;;;;5052954;28;20465;-68
2024/02/21 06:00:25;;;;;;;10.40;7.47;;;8.10;93.10;;;;;;5052817;28;20589;-68
2024/02/21 06:02:52;;;;;;;10.80;7.27;;;8.10;99.70;;;;;;5053171;28;20870;-69
2024/02/21 06:05:19;;;;;;;9.90;7.00;;;8.00;91.10;;;;;;5053830;28;20553;-69
2024/02/21 06:07:48;;;;;;;15.03;7.40;;;8.00;99.90;;;;;;5053660;28;20544;-69
2024/02/21 06:10:15;;;;;;;15.60;9.00;;;8.00;92.70;;;;;;5053591;28;20463;-69
2024/02/21 06:12:43;;;;;;;12.60;7.03;;;8.10;62.50;;;;;;5054145;27;20507;-68
2024/02/21 06:15:11;;;;;;;13.23;7.20;;;8.10;63.30;;;;;;5053714;27;20463;-69
2024/02/21 06:17:38;;;;;;;15.30;7.80;;;8.10;57.10;;;;;;5053536;27;20458;-69
2024/02/21 06:20:06;;;;;;;11.40;7.10;;;8.10;44.30;;;;;;5053802;27;20999;-69
2024/02/21 06:22:34;;;;;;;11.70;7.07;;;8.10;13.50;;;;;;5052857;28;20498;-69
2024/02/21 06:25:02;;;;;;;13.93;7.33;;;8.10;1.60;;;;;;5053749;27;20817;-68
2024/02/21 06:27:30;;;;;;;14.83;7.40;;;8.20;17.70;;;;;;5053972;27;20557;-69
2024/02/21 06:29:57;;;;;;;11.70;6.77;;;8.20;31.60;;;;;;5056681;27;20482;-69
2024/02/21 06:32:25;;;;;;;16.00;8.10;;;8.20;48.70;;;;;;5056802;28;20954;-69
2024/02/21 06:34:52;;;;;;;18.60;9.40;;;8.20;71.70;;;;;;5058683;27;20942;-66
2024/02/21 06:37:19;;;;;;;13.57;7.83;;;8.10;99.90;;;;;;5060800;28;20461;-66
2024/02/21 06:39:47;;;;;;;15.40;7.83;;;8.10;99.90;;;;;;5061829;28;20598;-66
2024/02/21 06:42:15;;;;;;;12.50;8.30;;;8.10;99.90;;;;;;5061177;28;20462;-66
2024/02/21 06:44:42;;;;;;;15.97;8.80;;;8.10;99.90;;;;;;5060904;28;20911;-67
2024/02/21 06:47:10;;;;;;;13.97;7.60;;;8.10;99.90;;;;;;5060610;28;20458;-66
2024/02/21 06:49:37;;;;;;;15.60;8.60;;;8.00;99.90;;;;;;5061855;28;20480;-66
2024/02/21 06:52:05;;;;;;;16.57;8.80;;;8.10;99.90;;;;;;5060030;28;20460;-67
2024/02/21 06:54:33;;;;;;;13.80;7.83;;;8.10;99.90;;;;;;5061906;28;20770;-67
2024/02/21 06:57:01;;;;;;;13.10;8.20;;;8.00;99.90;;;;;;5060684;28;20484;-66
2024/02/21 06:59:30;;;;;;;16.90;7.70;;;8.00;99.90;;;;;;5060900;28;20514;-66
2024/02/21 07:01:57;;;;;;;18.07;7.20;;;8.00;99.90;;;;;;5060034;28;20898;-66
2024/02/21 07:04:25;;;;;;;12.10;7.40;;;8.00;99.90;;;;;;5061174;28;20459;-66
2024/02/21 07:06:52;;;;;;;13.93;7.40;;;8.10;99.90;;;;;;5061439;28;20432;-66
2024/02/21 07:09:19;;;;;;;14.17;7.80;;;8.10;99.90;;;;;;5060499;28;20514;-66
2024/02/21 07:11:47;;;;;;;11.30;7.27;;;8.00;99.90;;;;;;5062213;28;20482;-67
2024/02/21 07:14:16;;;;;;;13.83;8.13;;;8.10;99.90;;;;;;5061415;28;20573;-67
2024/02/21 07:16:44;;;;;;;15.53;8.03;;;8.10;99.90;;;;;;5061634;28;20473;-66
2024/02/21 07:19:11;;;;;;;14.57;9.20;;;8.10;99.90;;;;;;5063238;28;20469;-67
2024/02/21 07:21:41;;;;;;;14.13;9.30;;;8.10;99.90;;;;;;5063268;28;20757;-66
2024/02/21 07:24:09;;;;;;;17.53;9.40;;;8.10;99.90;;;;;;5064415;28;20557;-67
2024/02/21 07:26:36;;;;;;;17.63;9.27;;;8.20;99.90;;;;;;5062467;28;20496;-67
2024/02/21 07:29:03;;;;;;;12.90;8.77;;;8.20;99.90;;;;;;5063366;28;20458;-66
2024/02/21 07:31:31;;;;;;;17.90;9.93;;;8.20;99.90;;;;;;5061810;28;20511;-66
2024/02/21 07:33:59;;;;;;;14.10;8.10;;;8.30;99.90;;;;;;5061152;28;20458;-66
2024/02/21 07:36:30;;;;;;;13.23;8.07;;;8.30;99.90;;;;;;5064779;28;20487;-66
2024/02/21 07:38:57;;;;;;;16.67;9.13;;;8.30;99.90;;;;;;5063883;28;20458;-66
2024/02/21 07:41:25;;;;;;;13.30;7.30;;;8.30;99.90;;;;;;5063996;28;20836;-66
2024/02/21 07:43:52;;;;;;;10.20;8.03;;;8.40;99.90;;;;;;5062594;28;20458;-66
2024/02/21 07:46:20;;;;;;;12.53;7.20;;;8.40;99.90;;;;;;5061647;28;20458;-67
2024/02/21 07:48:47;;;;;;;14.30;6.67;;;8.50;99.90;;;;;;5062726;28;20458;-67
2024/02/21 07:51:17;;;;;;;13.93;7.67;;;8.50;99.90;;;;;;5064428;28;20785;-67
2024/02/21 07:53:46;;;;;;;11.43;6.50;;;8.50;97.10;;;;;;5059537;27;20848;-67
2024/02/21 07:56:13;;;;;;;11.33;7.27;;;8.50;77.50;;;;;;5062528;28;20463;-67
2024/02/21 07:58:41;;;;;;;9.37;6.13;;;8.50;69.20;;;;;;5063571;28;20459;-66
2024/02/21 08:01:09;;;;;;;7.83;6.17;;;8.50;91.90;;;;;;5061169;27;20494;-67
2024/02/21 08:03:36;;;;;;;12.03;6.73;;;8.50;96.40;;;;;;5059429;27;20462;-67
2024/02/21 08:06:05;;;;;;;13.47;6.13;;;8.60;99.20;;;;;;5058296;28;20793;-67
2024/02/21 08:08:33;;;;;;;12.63;6.40;;;8.60;99.90;;;;;;5061163;28;20488;-67
2024/02/21 08:11:01;;;;;;;9.43;6.23;;;8.60;99.90;;;;;;5060015;28;20455;-69
2024/02/21 08:13:28;;;;;;;10.33;5.90;;;8.60;99.90;;;;;;5058278;28;20480;-67
2024/02/21 08:15:57;;;;;;;13.63;6.07;;;8.50;99.90;;;;;;5058312;28;20511;-67
2024/02/21 08:18:24;;;;;;;10.10;6.47;;;8.50;99.90;;;;;;5057211;28;20486;-67
2024/02/21 08:20:51;;;;;;;13.53;6.93;;;8.50;99.90;;;;;;5057107;28;20833;-67
2024/02/21 08:23:20;;;;;;;12.07;6.60;;;8.40;99.90;;;;;;5058231;28;20455;-67
2024/02/21 08:25:49;;;;;;;10.20;6.23;;;8.40;99.90;;;;;;5056774;28;20461;-66
2024/02/21 08:28:16;;;;;;;13.30;6.90;;;8.40;99.90;;;;;;5056462;28;20462;-66
2024/02/21 08:30:47;;;;;;;11.13;7.13;;;8.40;99.90;;;;;;5056499;28;20480;-65
2024/02/21 08:33:16;;;;;;;10.43;6.70;;;8.40;99.90;;;;;;5056202;28;20462;-66
2024/02/21 08:35:44;;;;;;;11.50;7.60;;;8.40;99.90;;;;;;5054857;28;20462;-67
2024/02/21 08:38:11;;;;;;;15.57;9.70;;;8.30;1.00;;;;;;5055424;28;20470;-67
2024/02/21 08:40:38;;;;;;;11.40;7.67;;;8.30;1.00;;;;;;5056780;28;20483;-67
2024/02/21 08:43:07;;;;;;;16.20;10.00;;;8.30;1.00;;;;;;5056774;28;20459;-66
2024/02/21 08:45:34;;;;;;;23.00;9.37;;;8.30;1.00;;;;;;5057570;28;20461;-66
2024/02/21 08:48:02;;;;;;;16.93;8.30;;;8.20;1.00;;;;;;5056621;28;20883;-66
2024/02/21 08:50:29;;;;;;;14.00;9.23;;;8.20;1.00;;;;;;5057389;28;20489;-66
2024/02/21 08:52:57;;;;;;;16.40;9.17;;;8.20;1.00;;;;;;5055966;28;20469;-66
2024/02/21 08:55:25;;;;;;;12.20;8.70;;;8.20;1.00;;;;;;5054956;28;20459;-66
2024/02/21 08:57:52;;;;;;;13.90;8.57;;;8.20;1.00;;;;;;5054958;28;20458;-66
2024/02/21 09:00:26;;;;;;;11.60;7.20;;;8.20;1.00;;;;;;5055537;28;20526;-66
2024/02/21 09:02:55;;;;;;;10.97;7.00;;;8.20;1.00;;;;;;5054534;28;20510;-66
2024/02/21 09:05:24;;;;;;;10.50;6.50;;;8.20;1.00;;;;;;5055420;28;20468;-66
2024/02/21 09:07:51;;;;;;;11.87;6.70;;;8.20;1.00;;;;;;5057117;28;20473;-67
2024/02/21 09:10:19;;;;;;;11.37;7.10;;;8.20;1.00;;;;;;5057521;28;20802;-66
2024/02/21 09:12:47;;;;;;;14.80;7.90;;;8.30;1.00;;;;;;5057058;28;20462;-67
2024/02/21 09:15:15;;;;;;;8.47;6.57;;;8.30;1.00;;;;;;5058118;28;20467;-67
2024/02/21 09:17:44;;;;;;;13.03;6.80;;;8.30;1.00;;;;;;5057439;28;20928;-67
2024/02/21 09:20:16;;;;;;;11.40;6.33;;;8.40;99.90;;;;;;5057243;28;20526;-67
2024/02/21 09:22:43;;;;;;;10.37;7.00;;;8.40;99.90;;;;;;5058126;28;20561;-67
2024/02/21 09:25:11;;;;;;;12.83;6.33;;;8.40;99.90;;;;;;5059518;28;20482;-67
2024/02/21 09:27:39;;;;;;;9.20;5.90;;;8.40;99.90;;;;;;5059352;28;20473;-67
2024/02/21 09:30:08;;;;;;;13.80;6.60;;;8.50;99.90;;;;;;5057058;28;20622;-67
2024/02/21 09:32:36;;;;;;;12.60;7.43;;;8.40;99.90;;;;;;5058565;28;20459;-67
2024/02/21 09:35:06;;;;;;;12.37;6.70;;;8.40;99.90;;;;;;5058978;28;20519;-67
2024/02/21 09:37:33;;;;;;;12.23;6.60;;;8.40;99.90;;;;;;5059162;28;20732;-67
2024/02/21 09:40:01;;;;;;;12.70;5.73;;;8.40;99.90;;;;;;5058992;28;20466;-67
2024/02/21 09:42:38;;;;;;;10.77;6.53;;;8.40;99.90;;;;;;5057230;28;20463;-67
2024/02/21 09:45:10;;;;;;;13.43;6.63;;;8.40;99.90;;;;;;5057589;28;20489;-67
2024/02/21 09:47:51;;;;;;;13.00;6.50;;;8.40;99.90;;;;;;5055492;28;20458;-66
2024/02/21 09:50:22;;;;;;;13.90;8.00;;;8.50;99.90;;;;;;5057567;28;20759;-67
2024/02/21 09:52:50;;;;;;;8.40;6.20;;;8.50;99.90;;;;;;5056526;28;20465;-67
2024/02/21 09:55:20;;;;;;;11.90;6.10;;;8.40;99.90;;;;;;5059283;28;20478;-66
2024/02/21 09:57:47;;;;;;;13.47;6.30;;;8.40;99.90;;;;;;5058595;28;20511;-66
2024/02/21 10:00:21;;;;;;;12.17;7.40;;;8.40;99.90;;;;;;5064386;28;20554;-66
2024/02/21 10:02:49;;;;;;;8.83;6.03;;;8.50;99.90;;;;;;5068214;28;20462;-65
2024/02/21 10:05:17;;;;;;;14.50;6.03;;;8.40;99.90;;;;;;5074268;28;20472;-65
2024/02/21 10:07:46;;;;;;;10.03;5.90;;;8.40;99.90;;;;;;5071957;28;20552;-66
2024/02/21 10:10:14;;;;;;;11.77;7.30;;;8.40;99.90;;;;;;5074508;28;20466;-65
2024/02/21 10:12:51;;;;;;;11.37;5.63;;;8.40;99.90;;;;;;5068767;28;20573;-65
2024/02/21 10:15:23;;;;;;;12.57;6.30;;;8.50;99.90;;;;;;5067380;28;20466;-66
2024/02/21 10:17:51;;;;;;;14.33;7.77;;;8.50;99.90;;;;;;5062778;28;20762;-65
2024/02/21 10:20:19;;;;;;;12.63;6.60;;;8.60;99.90;;;;;;5067724;28;20505;-65
2024/02/21 10:22:48;;;;;;;9.93;6.00;;;8.70;99.90;;;;;;5067286;28;20461;-65
2024/02/21 10:25:15;;;;;;;15.90;7.20;;;8.70;99.90;;;;;;5071373;28;20466;-65
2024/02/21 10:27:43;;;;;;;13.37;6.30;;;9.00;99.90;;;;;;5069492;28;20462;-65
2024/02/21 10:30:16;;;;;;;15.63;7.20;;;9.10;78.50;;;;;;5069326;28;20812;-65
2024/02/21 10:32:52;;;;;;;11.90;6.57;;;9.30;1.00;;;;;;5059154;28;20471;-61
2024/02/21 10:35:29;;;;;;;10.70;6.67;;;9.30;1.00;;;;;;5057041;28;20741;-62
2024/02/21 10:37:58;;;;;;;13.97;7.57;;;9.40;1.00;;;;;;5056700;28;20462;-62
2024/02/21 10:40:26;;;;;;;13.30;6.97;;;9.40;1.00;;;;;;5057012;28;20521;-61
2024/02/21 10:42:59;;;;;;;10.97;6.23;;;9.50;1.00;;;;;;5056972;28;20458;-61
2024/02/21 10:45:32;;;;;;;8.23;6.50;;;9.70;1.00;;;;;;5056677;28;20433;-61
2024/02/21 10:48:09;;;;;;;13.87;6.93;;;9.70;1.00;;;;;;5055578;28;20466;-61
2024/02/21 10:50:48;;;;;;;11.90;7.00;;;9.70;1.00;;;;;;5055508;28;20489;-62
2024/02/21 10:53:25;;;;;;;10.70;6.73;;;9.70;1.00;;;;;;5055137;28;20506;-61
2024/02/21 10:56:02;;;;;;;15.50;6.67;;;9.90;1.00;;;;;;5055001;28;20465;-62
2024/02/21 10:58:31;;;;;;;10.97;5.80;;;10.00;1.00;;;;;;5055267;28;20462;-62
2024/02/21 11:00:59;;;;;;;13.80;6.57;;;10.10;1.00;;;;;;5055173;28;20795;-61
2024/02/21 11:03:27;;;;;;;9.83;6.90;;;10.20;1.00;;;;;;5055512;28;20458;-62
2024/02/21 11:05:54;;;;;;;13.53;6.23;;;10.20;1.00;;;;;;5056499;28;20883;-62
2024/02/21 11:08:24;;;;;;;11.50;6.53;;;10.30;1.00;;;;;;5056757;28;20457;-61
2024/02/21 11:10:52;;;;;;;15.70;6.37;;;10.40;1.00;;;;;;5056877;28;20465;-62
2024/02/21 11:13:19;;;;;;;9.03;5.90;;;10.40;1.00;;;;;;5055598;28;20454;-62
2024/02/21 11:15:47;;;;;;;11.37;6.40;;;10.50;1.00;;;;;;5056142;28;20458;-62
2024/02/21 11:18:25;;;;;;;11.40;5.80;;;10.60;1.00;;;;;;5056342;28;20469;-62
2024/02/21 11:20:52;;;;;;;10.33;5.53;;;10.60;1.00;;;;;;5056558;28;20494;-61
2024/02/21 11:23:27;;;;;;;9.27;5.67;;;10.60;1.00;;;;;;5056304;28;20458;-61
2024/02/21 11:26:06;;;;;;;10.03;6.00;;;10.60;1.00;;;;;;5056238;28;20534;-62
2024/02/21 11:28:33;;;;;;;11.17;5.43;;;10.60;1.00;;;;;;5056429;28;20469;-62
2024/02/21 11:31:09;;;;;;;11.20;5.63;;;10.60;1.00;;;;;;5056186;28;20523;-62
2024/02/21 11:33:39;;;;;;;12.37;5.10;;;10.70;1.00;;;;;;5054832;28;20458;-62
2024/02/21 11:36:06;;;;;;;9.30;5.27;;;10.80;1.00;;;;;;5053845;28;20770;-61
2024/02/21 11:38:35;;;;;;;9.37;4.83;;;11.00;1.00;;;;;;5054578;28;20459;-62
2024/02/21 11:41:03;;;;;;;10.13;4.57;;;11.10;1.00;;;;;;5054211;28;20577;-62
2024/02/21 11:43:30;;;;;;;10.87;4.77;;;11.20;1.00;;;;;;5054423;28;20887;-62
2024/02/21 11:46:03;;;;;;;11.40;5.47;;;11.20;1.00;;;;;;5053944;28;20504;-63
2024/02/21 11:48:31;;;;;;;9.10;5.33;;;11.10;1.00;;;;;;5054500;28;20462;-62
2024/02/21 11:51:00;;;;;;;12.87;5.00;;;11.00;1.00;;;;;;5054573;28;20486;-62
2024/02/21 11:53:30;;;;;;;11.17;6.17;;;11.00;1.00;;;;;;5054623;28;20533;-63
2024/02/21 11:55:59;;;;;;;7.80;5.20;;;10.90;1.00;;;;;;5054676;28;20466;-62
2024/02/21 11:58:27;;;;;;;7.63;5.03;;;10.90;1.00;;;;;;5055058;28;20459;-62
2024/02/21 12:00:55;;;;;;;9.60;5.17;;;11.00;1.00;;;;;;5055169;28;20458;-63
2024/02/21 12:03:22;;;;;;;11.47;4.97;;;10.90;1.00;;;;;;5054948;28;20459;-63
2024/02/21 12:05:50;;;;;;;9.90;4.67;;;10.90;1.00;;;;;;5051284;28;20826;-63
2024/02/21 12:08:17;;;;;;;12.10;5.03;;;10.70;1.00;;;;;;5052657;28;20462;-63
2024/02/21 12:10:51;;;;;;;9.53;4.80;;;10.70;1.00;;;;;;5053390;28;20875;-62
2024/02/21 12:13:24;;;;;;;9.97;5.43;;;10.70;1.00;;;;;;5053606;28;20498;-63
2024/02/21 12:15:52;;;;;;;13.60;5.07;;;10.70;1.00;;;;;;5053480;28;20459;-63
2024/02/21 12:18:19;;;;;;;7.97;4.70;;;10.70;1.00;;;;;;5053277;28;20879;-63
2024/02/21 12:20:50;;;;;;;10.20;4.50;;;10.80;1.00;;;;;;5053114;28;20462;-63
2024/02/21 12:23:20;;;;;;;9.40;5.23;;;10.70;1.00;;;;;;5055238;28;20872;-63
2024/02/21 12:25:47;;;;;;;7.60;4.10;;;10.70;1.00;;;;;;5054685;28;20465;-62
2024/02/21 12:28:17;;;;;;;8.20;4.77;;;10.60;1.00;;;;;;5055466;28;20466;-62
2024/02/21 12:30:47;;;;;;;11.20;5.17;;;10.60;1.00;;;;;;5055618;28;20469;-63
2024/02/21 12:33:15;;;;;;;11.60;5.20;;;10.70;1.00;;;;;;5084891;27;20442;-61
2024/02/21 12:35:42;;;;;;;8.50;5.40;;;10.50;1.00;;;;;;5069169;27;20547;-63
2024/02/21 12:38:11;;;;;;;8.30;4.33;;;10.50;1.00;;;;;;5038394;28;20457;-62
2024/02/21 12:40:38;;;;;;;9.00;4.90;;;10.50;1.00;;;;;;5054602;28;20962;-62
2024/02/21 12:43:06;;;;;;;9.00;4.30;;;10.70;1.00;;;;;;5055299;28;20497;-62
2024/02/21 12:45:34;;;;;;;11.30;6.07;;;10.90;1.00;;;;;;5055240;28;20761;-62
2024/02/21 12:48:04;;;;;;;10.10;4.73;;;11.00;1.00;;;;;;5055227;28;20458;-62
2024/02/21 12:50:32;;;;;;;7.27;4.70;;;11.20;1.00;;;;;;5054203;28;20469;-62
2024/02/21 12:53:00;;;;;;;7.90;5.10;;;11.30;1.00;;;;;;5053723;28;20454;-63